createdAt,value
2019-03-31T14:02:47.872Z,7.10
2019-03-31T14:05:19.068Z,6.80
2019-03-31T14:07:50.406Z,7.00
2019-03-31T14:10:20.716Z,7.17
2019-03-31T14:12:51.683Z,7.92
2019-03-31T14:15:22.301Z,6.42
2019-03-31T14:17:53.639Z,7.03
2019-03-31T14:20:24.523Z,6.78
2019-03-31T14:22:55.530Z,7.78
2019-03-31T14:25:26.777Z,8.93
2019-03-31T14:27:57.775Z,9.60
2019-03-31T14:30:29.049Z,10.98
2019-03-31T14:32:59.365Z,10.08
2019-03-31T14:35:30.326Z,9.53
2019-03-31T14:38:01.546Z,9.73
2019-03-31T14:40:31.854Z,10.13
2019-03-31T14:43:02.099Z,9.08
2019-03-31T14:45:41.414Z,9.35
2019-03-31T14:48:12.370Z,8.88
2019-03-31T14:50:42.890Z,8.95
2019-03-31T14:53:12.889Z,9.60
2019-03-31T14:55:43.476Z,8.68
2019-03-31T14:58:14.392Z,8.33
2019-03-31T15:00:45.672Z,9.30
2019-03-31T15:03:18.260Z,9.23
2019-03-31T15:05:49.404Z,8.70
2019-03-31T15:08:19.977Z,8.23
2019-03-31T15:10:51.183Z,8.53
2019-03-31T15:13:21.094Z,8.65
2019-03-31T15:15:52.063Z,8.10
2019-03-31T15:18:23.334Z,7.75
2019-03-31T15:20:54.292Z,7.33
2019-03-31T15:23:28.935Z,7.15
2019-03-31T15:25:56.871Z,7.67
2019-03-31T15:28:28.311Z,7.10
2019-03-31T15:30:58.538Z,6.00
2019-03-31T15:33:29.516Z,6.62
2019-03-31T15:36:02.085Z,6.95
2019-03-31T15:38:32.468Z,7.30
2019-03-31T15:41:03.635Z,6.42
2019-03-31T15:43:34.232Z,6.17
2019-03-31T15:46:04.607Z,5.47
2019-03-31T15:48:35.271Z,6.33
2019-03-31T15:51:06.205Z,5.47
2019-03-31T15:53:36.714Z,5.70
2019-03-31T15:56:07.768Z,5.80
2019-03-31T15:58:38.753Z,6.40
2019-03-31T16:01:09.799Z,6.28
2019-03-31T16:03:40.689Z,5.87
2019-03-31T16:06:11.671Z,5.78
2019-03-31T16:08:41.015Z,5.45
2019-03-31T16:11:11.488Z,5.25
2019-03-31T16:13:41.556Z,5.83
2019-03-31T16:16:14.249Z,5.87
2019-03-31T16:18:43.388Z,5.47
2019-03-31T16:21:13.488Z,5.87
2019-03-31T16:23:43.520Z,5.35
2019-03-31T16:26:13.669Z,5.35
2019-03-31T16:28:43.990Z,5.95
2019-03-31T16:31:14.497Z,5.30
2019-03-31T16:33:44.536Z,5.97
2019-03-31T16:36:14.973Z,5.55
2019-03-31T16:38:45.128Z,5.67
2019-03-31T16:41:15.613Z,5.78
2019-03-31T16:43:45.706Z,5.67
2019-03-31T16:46:15.788Z,5.62
2019-03-31T16:48:45.544Z,5.92
2019-03-31T16:51:16.399Z,6.55
2019-03-31T16:53:46.403Z,6.00
2019-03-31T16:56:16.549Z,6.37
2019-03-31T16:58:46.643Z,5.90
2019-03-31T17:01:16.986Z,5.83
2019-03-31T17:03:46.691Z,6.17
2019-03-31T17:06:16.416Z,6.08
2019-03-31T17:08:47.095Z,6.00
2019-03-31T17:11:17.149Z,5.97
2019-03-31T17:13:47.244Z,5.80
2019-03-31T17:16:16.592Z,6.20
2019-03-31T17:18:46.977Z,6.00
2019-03-31T17:21:16.985Z,5.90
2019-03-31T17:23:47.782Z,6.37
2019-03-31T17:26:18.182Z,5.47
2019-03-31T17:28:48.512Z,6.22
2019-03-31T17:31:18.267Z,5.85
2019-03-31T17:33:48.631Z,5.70
2019-03-31T17:36:19.039Z,5.95
2019-03-31T17:38:49.155Z,6.00
2019-03-31T17:41:18.891Z,5.90
2019-03-31T17:43:49.361Z,5.70
2019-03-31T17:46:20.140Z,5.67
2019-03-31T17:48:50.510Z,5.83
2019-03-31T17:51:20.606Z,6.22
2019-03-31T17:53:50.650Z,6.87
2019-03-31T17:56:21.131Z,7.15
2019-03-31T17:58:50.919Z,6.15
2019-03-31T18:01:22.476Z,6.70
2019-03-31T18:03:52.521Z,5.97
2019-03-31T18:06:23.299Z,6.33
2019-03-31T18:08:52.949Z,6.70
2019-03-31T18:11:23.408Z,6.53
2019-03-31T18:13:54.165Z,6.97
2019-03-31T18:16:24.530Z,6.78
2019-03-31T18:18:58.245Z,6.55
2019-03-31T18:21:28.262Z,6.10
2019-03-31T18:23:58.634Z,6.75
2019-03-31T18:26:28.974Z,7.12
2019-03-31T18:28:59.704Z,7.22
2019-03-31T18:31:30.152Z,7.08
2019-03-31T18:34:00.616Z,7.40
2019-03-31T18:36:36.749Z,6.97
2019-03-31T18:39:04.352Z,6.80
2019-03-31T18:41:34.955Z,7.03
2019-03-31T18:44:05.545Z,7.15
2019-03-31T18:46:35.897Z,6.83
2019-03-31T18:49:06.314Z,7.08
2019-03-31T18:51:36.467Z,7.03
2019-03-31T18:54:16.039Z,7.47
2019-03-31T18:57:07.706Z,6.87
2019-03-31T18:59:56.516Z,12.73
2019-03-31T19:02:57.490Z,7.87
2019-03-31T19:05:45.557Z,7.72
2019-03-31T19:08:33.617Z,7.90
2019-03-31T19:11:14.769Z,7.50
2019-03-31T19:13:57.825Z,7.85
2019-03-31T19:16:49.311Z,7.65
2019-03-31T19:19:37.252Z,8.28
2019-03-31T19:22:18.138Z,7.55
2019-03-31T19:25:19.695Z,7.45
2019-03-31T19:28:07.000Z,8.38
2019-03-31T19:31:08.480Z,9.05
2019-03-31T19:33:56.585Z,7.95
2019-03-31T19:36:37.829Z,8.48
2019-03-31T19:39:21.112Z,8.38
2019-03-31T19:42:17.544Z,7.72
2019-03-31T19:44:59.850Z,8.08
2019-03-31T19:47:48.057Z,8.35
2019-03-31T19:50:38.756Z,8.13
2019-03-31T19:53:28.007Z,8.58
2019-03-31T19:56:17.351Z,8.08
2019-03-31T19:59:05.306Z,8.73
